Racecast

Michael Duran

Primero (CO) · 12 · CO D2A2A · Compare head to head

Athlete rating 118.5 2019 TF season
Best race 123.8 TF
Races 44
Seasons 4 2016 — 2019

RankedNation #23724·CO #565·CO D2A #128·Team #2 ?

Speed rating — all races

Cross Country

XC speed rating

2018 XC 103.8

Primero (CO) · Grade 12

Date Meet Event Result Place Rating Difficulty PR/SR Flags
2018-10-19 Babcock Park 5000m 19:18.4 28th · 1st on team 107.8 +0.009 ★PR ★CR SR CSR RSR
2018-10-12 Monte Vista Golf Course 5000m 21:09.5 46th · 1st on team 102.5 +0.046 ★CR CSR
2018-09-08 Cattails Golf Course 5000m 21:03.1 149th · 1st on team 99.6 +0.012 ★CR CSR
2018-08-31 Babcock Park 5000m 19:55 29th · 1st on team 105.2 +0.009 PR CR SR CSR RSR

Track & Field

TF speed rating

2019 TF 114.4

Primero (CO) · Grade 12

Date Meet Event Result Place Rating Difficulty PR/SR Flags
2019-05-18 CHSAA State Track and Field Championship 800m 2:08.53 12th · 1st on team 121.6 -0.011
2019-05-18 CHSAA State Track and Field Championship 3200m 11:35.47 11th · 1st on team 108.6 -0.011
2019-05-18 CHSAA State Track and Field Championship 1600m 5:10.48 12th · 1st on team 112.9 -0.011
2019-05-10 Pueblo West Cyclone Invitational 3200m 11:18.53 8th · 1st on team 111.0 -0.011 ★PR SR
2019-05-10 Pueblo West Cyclone Invitational 800m 2:06.44 8th · 1st on team 123.8 -0.011 ★PR ★R SR RSR
2019-05-03 Blossom Invitational 800m 2:08.3 4th · 1st on team 122.5 -0.003 PR R SR RSR
2019-05-03 Blossom Invitational 1600m 4:58.01 6th · 1st on team 118.6 -0.003 ★PR SR
2019-04-27 Springfield Invitational 1600m 5:00.06 2nd · 1st on team 118.5 +0.001 PR SR
2019-04-27 Springfield Invitational 800m 2:20.46 10th · 1st on team 112.6 +0.001
2019-04-25 Primero Invitational 3200m 12:51.42 3rd · 1st on team 100.6 +0.015
2019-04-25 Primero Invitational 1600m 5:01.64 1st · 1st on team 119.0 +0.015 PR R SR RSR
2019-04-25 Primero Invitational 800m 2:16.27 2nd · 1st on team 117.3 +0.015
2019-04-19 La Junta Tiger Relays 3200m 11:27.06 9th · 1st on team 111.4 -0.004 PR SR
2019-04-19 La Junta Tiger Relays 800m 2:12.69 6th · 1st on team 118.2 -0.004 PR R SR RSR
2019-04-15 Thunder-Storm Invitational 1600m 5:02.91 5th · 1st on team 116.1 -0.006 PR R SR RSR
2019-04-15 Thunder-Storm Invitational 800m 2:16.41 10th · 1st on team 114.7 -0.006 PR SR
2019-04-12 Thunderbird Invitational 3200m 11:58.8 1st · 1st on team 109.0 +0.025 PR SR
2019-03-30 Center Invitational 800m 2:23.92 5th · 1st on team 112.6 +0.028
2019-03-30 Center Invitational 1600m 5:28.45 3rd · 1st on team 110.9 +0.028
2019-03-23 Lamar Savage Invitational 800m 2:17.01 5th · 1st on team 115.0 -0.008 PR R SR RSR
2019-03-23 Lamar Savage Invitational 1600m 5:12.16 6th · 1st on team 113.3 -0.008 PR SR
2019-03-16 The Larry Pickering Centennial Invitational 1600m 5:16.81 24th · 1st on team 110.6 -0.011 PR SR RSR
2019-03-16 The Larry Pickering Centennial Invitational 800m 2:18.34 19th · 1st on team 112.8 -0.011 SR RSR

2018 TF 108.4

Primero (CO) · Grade 11

Date Meet Event Result Place Rating Difficulty PR/SR Flags
2018-05-10 Pueblo West Cyclone Invitational 800m 2:18.12 15th · 2nd on team 113.1 -0.011 PR R SR RSR
2018-05-05 Doherty Spartan Invitational 800m 2:25.75 42nd · 1st on team 107.4 -0.004
2018-05-04 Canon City Blossom Invitational 800m 2:21.09 18th · 2nd on team 111.0 -0.003 PR R SR RSR
2018-04-28 Springfield Invitational 400m 59.58 9th · 1st on team +0.001 ★PR SR
2018-04-28 Springfield Invitational 800m 2:40.57 9th · 2nd on team 98.2 +0.001
2018-04-23 Ray Headley Invitational 800m 2:22.69 11th · 1st on team 109.3 -0.005
2018-04-14 Thunder-Storm Invitational 800m 2:26.07 24th · 1st on team 108.1 -0.006
2018-04-07 John Tate Challenge Cup 800m 2:21.22 12th · 1st on team 110.6 -0.011 PR R SR RSR
2018-04-07 John Tate Challenge Cup 400m 1:01.53 26th · 1st on team -0.011 PR SR
2018-03-29 La Junta Open 100m 13.01 44th · 1st on team -0.004
2018-03-24 Lamar Savage Invitational 100m 13.1 27th · 1st on team -0.008
2018-03-24 Lamar Savage Invitational 400m 1:01.97 23rd · 1st on team -0.008 PR SR
2018-03-10 CSU-Pueblo Early-Bird (HS) 800m 2:23.13 14th · 2nd on team 109.7 -0.006 PR R SR RSR
2018-03-10 CSU-Pueblo Early-Bird (HS) 100m 12.69 27th · 1st on team -0.006 ★PR SR

2017 TF 99.7

Primero (CO) · Grade 10

Date Meet Event Result Place Rating Difficulty PR/SR Flags
2017-05-02 High Altitude Challenge 1600m 6:04.78 14th · 3rd on team 98.5 +0.020 PR SR RSR
2017-05-02 High Altitude Challenge 800m 2:38.45 20th · 3rd on team 100.9 +0.020 PR R SR RSR

2016 TF 100.8

Primero (CO) · Grade 9

Date Meet Event Result Place Rating Difficulty PR/SR Flags
2016-05-06 Canon City Blossom Invitational 3200m 12:37.86 19th · 1st on team 100.8 -0.003 PR R SR RSR